sensor_id;sensor_type;location;lat;lon;timestamp;P1;durP1;ratioP1;P2;durP2;ratioP2
10884;SDS011;5495;53.252;10.390;2022-12-18T00:01:34;17.63;;;10.43;;
10884;SDS011;5495;53.252;10.390;2022-12-18T00:04:05;18.23;;;10.00;;
10884;SDS011;5495;53.252;10.390;2022-12-18T00:06:52;18.80;;;10.40;;
10884;SDS011;5495;53.252;10.390;2022-12-18T00:09:20;17.70;;;9.97;;
10884;SDS011;5495;53.252;10.390;2022-12-18T00:11:50;16.10;;;10.23;;
10884;SDS011;5495;53.252;10.390;2022-12-18T00:14:24;18.60;;;9.93;;
10884;SDS011;5495;53.252;10.390;2022-12-18T00:16:51;16.00;;;9.47;;
10884;SDS011;5495;53.252;10.390;2022-12-18T00:19:41;17.00;;;9.43;;
10884;SDS011;5495;53.252;10.390;2022-12-18T00:22:08;17.40;;;9.83;;
10884;SDS011;5495;53.252;10.390;2022-12-18T00:24:37;14.73;;;8.90;;
10884;SDS011;5495;53.252;10.390;2022-12-18T00:27:15;14.03;;;8.90;;
10884;SDS011;5495;53.252;10.390;2022-12-18T00:29:50;17.07;;;9.83;;
10884;SDS011;5495;53.252;10.390;2022-12-18T00:32:20;16.23;;;9.43;;
10884;SDS011;5495;53.252;10.390;2022-12-18T00:34:51;18.47;;;10.30;;
10884;SDS011;5495;53.252;10.390;2022-12-18T00:37:26;14.67;;;8.90;;
10884;SDS011;5495;53.252;10.390;2022-12-18T00:39:54;17.47;;;8.90;;
10884;SDS011;5495;53.252;10.390;2022-12-18T00:42:24;19.23;;;10.30;;
10884;SDS011;5495;53.252;10.390;2022-12-18T00:45:11;20.97;;;9.60;;
10884;SDS011;5495;53.252;10.390;2022-12-18T00:47:41;15.13;;;8.77;;
10884;SDS011;5495;53.252;10.390;2022-12-18T00:50:23;17.20;;;9.93;;
10884;SDS011;5495;53.252;10.390;2022-12-18T00:52:51;22.33;;;9.57;;
10884;SDS011;5495;53.252;10.390;2022-12-18T00:55:18;16.17;;;8.97;;
10884;SDS011;5495;53.252;10.390;2022-12-18T00:57:45;17.17;;;9.47;;
10884;SDS011;5495;53.252;10.390;2022-12-18T01:00:12;18.73;;;9.83;;
10884;SDS011;5495;53.252;10.390;2022-12-18T01:02:49;13.87;;;9.33;;
10884;SDS011;5495;53.252;10.390;2022-12-18T01:05:25;16.57;;;9.63;;
10884;SDS011;5495;53.252;10.390;2022-12-18T01:07:52;17.30;;;9.50;;
10884;SDS011;5495;53.252;10.390;2022-12-18T01:10:21;17.83;;;9.13;;
10884;SDS011;5495;53.252;10.390;2022-12-18T01:12:52;15.10;;;9.43;;
10884;SDS011;5495;53.252;10.390;2022-12-18T01:15:20;18.60;;;10.27;;
10884;SDS011;5495;53.252;10.390;2022-12-18T01:17:47;16.63;;;9.60;;
10884;SDS011;5495;53.252;10.390;2022-12-18T01:20:33;17.17;;;9.43;;
10884;SDS011;5495;53.252;10.390;2022-12-18T01:23:00;15.40;;;9.47;;
10884;SDS011;5495;53.252;10.390;2022-12-18T01:25:29;18.33;;;9.90;;
10884;SDS011;5495;53.252;10.390;2022-12-18T01:27:56;15.37;;;9.90;;
10884;SDS011;5495;53.252;10.390;2022-12-18T01:30:23;14.80;;;9.23;;
10884;SDS011;5495;53.252;10.390;2022-12-18T01:32:52;19.07;;;9.97;;
10884;SDS011;5495;53.252;10.390;2022-12-18T01:35:21;17.70;;;9.83;;
10884;SDS011;5495;53.252;10.390;2022-12-18T01:37:49;18.00;;;10.07;;
10884;SDS011;5495;53.252;10.390;2022-12-18T01:40:19;22.43;;;10.33;;
10884;SDS011;5495;53.252;10.390;2022-12-18T01:42:49;21.13;;;10.30;;
10884;SDS011;5495;53.252;10.390;2022-12-18T01:45:25;17.77;;;10.13;;
10884;SDS011;5495;53.252;10.390;2022-12-18T01:47:54;19.70;;;11.17;;
10884;SDS011;5495;53.252;10.390;2022-12-18T01:50:33;20.50;;;10.77;;
10884;SDS011;5495;53.252;10.390;2022-12-18T01:53:03;20.43;;;9.40;;
10884;SDS011;5495;53.252;10.390;2022-12-18T01:55:35;17.93;;;9.73;;
10884;SDS011;5495;53.252;10.390;2022-12-18T01:58:03;20.23;;;9.83;;
10884;SDS011;5495;53.252;10.390;2022-12-18T02:00:54;15.50;;;9.70;;
10884;SDS011;5495;53.252;10.390;2022-12-18T02:03:21;17.10;;;9.73;;
10884;SDS011;5495;53.252;10.390;2022-12-18T02:05:57;16.03;;;10.23;;
10884;SDS011;5495;53.252;10.390;2022-12-18T02:08:35;14.83;;;9.73;;
10884;SDS011;5495;53.252;10.390;2022-12-18T02:11:06;16.27;;;8.87;;
10884;SDS011;5495;53.252;10.390;2022-12-18T02:13:43;15.37;;;9.20;;
10884;SDS011;5495;53.252;10.390;2022-12-18T02:16:19;22.80;;;10.10;;
10884;SDS011;5495;53.252;10.390;2022-12-18T02:18:52;17.63;;;9.83;;
10884;SDS011;5495;53.252;10.390;2022-12-18T02:21:25;19.90;;;9.77;;
10884;SDS011;5495;53.252;10.390;2022-12-18T02:24:01;19.20;;;10.40;;
10884;SDS011;5495;53.252;10.390;2022-12-18T02:26:41;16.27;;;9.80;;
10884;SDS011;5495;53.252;10.390;2022-12-18T02:29:15;15.10;;;10.13;;
10884;SDS011;5495;53.252;10.390;2022-12-18T02:31:49;18.17;;;9.73;;
10884;SDS011;5495;53.252;10.390;2022-12-18T02:34:19;16.90;;;9.70;;
10884;SDS011;5495;53.252;10.390;2022-12-18T02:36:49;20.83;;;10.30;;
10884;SDS011;5495;53.252;10.390;2022-12-18T02:39:19;17.87;;;9.93;;
10884;SDS011;5495;53.252;10.390;2022-12-18T02:41:48;17.37;;;9.97;;
10884;SDS011;5495;53.252;10.390;2022-12-18T02:44:18;16.83;;;10.27;;
10884;SDS011;5495;53.252;10.390;2022-12-18T02:46:45;21.83;;;10.87;;
10884;SDS011;5495;53.252;10.390;2022-12-18T02:49:20;17.73;;;9.37;;
10884;SDS011;5495;53.252;10.390;2022-12-18T02:52:00;16.27;;;10.20;;
10884;SDS011;5495;53.252;10.390;2022-12-18T02:54:37;17.10;;;9.80;;
10884;SDS011;5495;53.252;10.390;2022-12-18T02:57:23;18.53;;;10.23;;
10884;SDS011;5495;53.252;10.390;2022-12-18T02:59:58;16.37;;;10.07;;
10884;SDS011;5495;53.252;10.390;2022-12-18T03:02:32;19.47;;;10.50;;
10884;SDS011;5495;53.252;10.390;2022-12-18T03:05:08;22.60;;;10.67;;
10884;SDS011;5495;53.252;10.390;2022-12-18T03:07:42;15.63;;;9.63;;
10884;SDS011;5495;53.252;10.390;2022-12-18T03:10:17;17.17;;;9.77;;
10884;SDS011;5495;53.252;10.390;2022-12-18T03:12:47;17.67;;;9.97;;
10884;SDS011;5495;53.252;10.390;2022-12-18T03:15:24;21.00;;;10.80;;
10884;SDS011;5495;53.252;10.390;2022-12-18T03:18:06;14.77;;;9.43;;
10884;SDS011;5495;53.252;10.390;2022-12-18T03:20:39;18.83;;;10.70;;
10884;SDS011;5495;53.252;10.390;2022-12-18T03:23:09;18.30;;;11.03;;
10884;SDS011;5495;53.252;10.390;2022-12-18T03:25:40;16.23;;;10.13;;
10884;SDS011;5495;53.252;10.390;2022-12-18T03:28:12;18.83;;;10.57;;
10884;SDS011;5495;53.252;10.390;2022-12-18T03:30:41;18.03;;;10.60;;
10884;SDS011;5495;53.252;10.390;2022-12-18T03:33:13;17.17;;;10.33;;
10884;SDS011;5495;53.252;10.390;2022-12-18T03:35:45;19.20;;;11.63;;
10884;SDS011;5495;53.252;10.390;2022-12-18T03:38:13;19.10;;;10.53;;
10884;SDS011;5495;53.252;10.390;2022-12-18T03:40:47;22.40;;;11.00;;
10884;SDS011;5495;53.252;10.390;2022-12-18T03:43:24;18.57;;;10.93;;
10884;SDS011;5495;53.252;10.390;2022-12-18T03:46:02;20.73;;;11.67;;
10884;SDS011;5495;53.252;10.390;2022-12-18T03:48:33;19.67;;;10.87;;
10884;SDS011;5495;53.252;10.390;2022-12-18T03:51:05;20.17;;;11.10;;
10884;SDS011;5495;53.252;10.390;2022-12-18T03:53:36;20.43;;;11.73;;
10884;SDS011;5495;53.252;10.390;2022-12-18T03:56:09;17.50;;;9.70;;
10884;SDS011;5495;53.252;10.390;2022-12-18T03:58:40;19.57;;;10.97;;
10884;SDS011;5495;53.252;10.390;2022-12-18T04:01:09;16.50;;;10.53;;
10884;SDS011;5495;53.252;10.390;2022-12-18T04:03:39;21.93;;;10.70;;
10884;SDS011;5495;53.252;10.390;2022-12-18T04:06:08;19.00;;;10.67;;
10884;SDS011;5495;53.252;10.390;2022-12-18T04:08:36;17.30;;;11.20;;
10884;SDS011;5495;53.252;10.390;2022-12-18T04:11:05;21.83;;;11.87;;
10884;SDS011;5495;53.252;10.390;2022-12-18T04:13:32;20.63;;;10.80;;
10884;SDS011;5495;53.252;10.390;2022-12-18T04:16:02;17.90;;;11.07;;
10884;SDS011;5495;53.252;10.390;2022-12-18T04:18:29;18.17;;;10.50;;
10884;SDS011;5495;53.252;10.390;2022-12-18T04:21:00;17.13;;;9.73;;
10884;SDS011;5495;53.252;10.390;2022-12-18T04:23:27;21.80;;;10.37;;
10884;SDS011;5495;53.252;10.390;2022-12-18T04:25:54;20.10;;;11.30;;
10884;SDS011;5495;53.252;10.390;2022-12-18T04:28:24;20.13;;;11.83;;
10884;SDS011;5495;53.252;10.390;2022-12-18T04:30:50;18.77;;;10.90;;
10884;SDS011;5495;53.252;10.390;2022-12-18T04:33:19;19.63;;;11.00;;
10884;SDS011;5495;53.252;10.390;2022-12-18T04:35:46;21.10;;;10.97;;
10884;SDS011;5495;53.252;10.390;2022-12-18T04:38:12;20.63;;;12.13;;
10884;SDS011;5495;53.252;10.390;2022-12-18T04:40:39;25.27;;;12.63;;
10884;SDS011;5495;53.252;10.390;2022-12-18T04:43:06;20.43;;;12.40;;
10884;SDS011;5495;53.252;10.390;2022-12-18T04:45:33;20.53;;;12.30;;
10884;SDS011;5495;53.252;10.390;2022-12-18T04:48:00;22.03;;;12.63;;
10884;SDS011;5495;53.252;10.390;2022-12-18T04:50:28;23.80;;;13.00;;
10884;SDS011;5495;53.252;10.390;2022-12-18T04:52:56;24.17;;;12.93;;
10884;SDS011;5495;53.252;10.390;2022-12-18T04:55:23;23.33;;;13.00;;
10884;SDS011;5495;53.252;10.390;2022-12-18T04:57:49;24.87;;;14.20;;
10884;SDS011;5495;53.252;10.390;2022-12-18T05:00:16;23.67;;;13.03;;
10884;SDS011;5495;53.252;10.390;2022-12-18T05:02:46;27.10;;;13.73;;
10884;SDS011;5495;53.252;10.390;2022-12-18T05:05:13;22.77;;;13.20;;
10884;SDS011;5495;53.252;10.390;2022-12-18T05:07:41;22.07;;;13.00;;
10884;SDS011;5495;53.252;10.390;2022-12-18T05:10:08;20.70;;;12.93;;
10884;SDS011;5495;53.252;10.390;2022-12-18T05:12:35;24.87;;;14.00;;
10884;SDS011;5495;53.252;10.390;2022-12-18T05:15:22;24.67;;;12.60;;
10884;SDS011;5495;53.252;10.390;2022-12-18T05:17:50;21.73;;;11.90;;
10884;SDS011;5495;53.252;10.390;2022-12-18T05:20:17;22.93;;;12.67;;
10884;SDS011;5495;53.252;10.390;2022-12-18T05:22:44;24.47;;;12.77;;
10884;SDS011;5495;53.252;10.390;2022-12-18T05:25:11;22.30;;;12.33;;
10884;SDS011;5495;53.252;10.390;2022-12-18T05:27:40;19.43;;;11.47;;
10884;SDS011;5495;53.252;10.390;2022-12-18T05:30:07;22.80;;;12.43;;
10884;SDS011;5495;53.252;10.390;2022-12-18T05:32:35;22.80;;;12.23;;
10884;SDS011;5495;53.252;10.390;2022-12-18T05:35:01;22.97;;;12.97;;
10884;SDS011;5495;53.252;10.390;2022-12-18T05:37:29;20.40;;;12.33;;
10884;SDS011;5495;53.252;10.390;2022-12-18T05:39:57;24.53;;;12.90;;
10884;SDS011;5495;53.252;10.390;2022-12-18T05:42:29;23.13;;;11.70;;
10884;SDS011;5495;53.252;10.390;2022-12-18T05:45:01;24.27;;;12.00;;
10884;SDS011;5495;53.252;10.390;2022-12-18T05:47:28;28.43;;;11.90;;
10884;SDS011;5495;53.252;10.390;2022-12-18T05:49:55;22.70;;;12.00;;
10884;SDS011;5495;53.252;10.390;2022-12-18T05:52:21;19.23;;;11.30;;
10884;SDS011;5495;53.252;10.390;2022-12-18T05:54:48;23.00;;;12.40;;
10884;SDS011;5495;53.252;10.390;2022-12-18T05:57:16;20.33;;;12.27;;
10884;SDS011;5495;53.252;10.390;2022-12-18T05:59:45;18.27;;;10.97;;
10884;SDS011;5495;53.252;10.390;2022-12-18T06:02:14;19.87;;;11.90;;
10884;SDS011;5495;53.252;10.390;2022-12-18T06:04:40;20.53;;;11.57;;
10884;SDS011;5495;53.252;10.390;2022-12-18T06:07:07;21.13;;;11.60;;
10884;SDS011;5495;53.252;10.390;2022-12-18T06:09:34;22.77;;;12.53;;
10884;SDS011;5495;53.252;10.390;2022-12-18T06:12:00;25.70;;;12.93;;
10884;SDS011;5495;53.252;10.390;2022-12-18T06:14:28;20.37;;;11.83;;
10884;SDS011;5495;53.252;10.390;2022-12-18T06:16:54;27.33;;;12.90;;
10884;SDS011;5495;53.252;10.390;2022-12-18T06:19:21;26.37;;;12.63;;
10884;SDS011;5495;53.252;10.390;2022-12-18T06:21:51;23.40;;;12.87;;
10884;SDS011;5495;53.252;10.390;2022-12-18T06:24:18;26.87;;;13.27;;
10884;SDS011;5495;53.252;10.390;2022-12-18T06:26:45;24.60;;;13.03;;
10884;SDS011;5495;53.252;10.390;2022-12-18T06:29:14;23.00;;;12.50;;
10884;SDS011;5495;53.252;10.390;2022-12-18T06:31:41;22.37;;;12.77;;
10884;SDS011;5495;53.252;10.390;2022-12-18T06:34:10;23.87;;;12.63;;
10884;SDS011;5495;53.252;10.390;2022-12-18T06:36:37;20.80;;;11.90;;
10884;SDS011;5495;53.252;10.390;2022-12-18T06:39:04;23.70;;;11.53;;
10884;SDS011;5495;53.252;10.390;2022-12-18T06:41:30;23.73;;;12.97;;
10884;SDS011;5495;53.252;10.390;2022-12-18T06:44:00;24.07;;;12.47;;
10884;SDS011;5495;53.252;10.390;2022-12-18T06:46:29;24.93;;;12.90;;
10884;SDS011;5495;53.252;10.390;2022-12-18T06:49:04;22.73;;;12.60;;
10884;SDS011;5495;53.252;10.390;2022-12-18T06:51:34;22.37;;;12.83;;
10884;SDS011;5495;53.252;10.390;2022-12-18T06:54:13;22.13;;;12.53;;
10884;SDS011;5495;53.252;10.390;2022-12-18T06:56:44;22.53;;;11.90;;
10884;SDS011;5495;53.252;10.390;2022-12-18T06:59:14;23.63;;;12.03;;
10884;SDS011;5495;53.252;10.390;2022-12-18T07:01:42;22.67;;;12.20;;
10884;SDS011;5495;53.252;10.390;2022-12-18T07:04:12;27.47;;;13.43;;
10884;SDS011;5495;53.252;10.390;2022-12-18T07:06:55;24.57;;;13.07;;
10884;SDS011;5495;53.252;10.390;2022-12-18T07:09:28;32.57;;;15.27;;
10884;SDS011;5495;53.252;10.390;2022-12-18T07:12:00;25.17;;;12.77;;
10884;SDS011;5495;53.252;10.390;2022-12-18T07:14:32;26.17;;;12.63;;
10884;SDS011;5495;53.252;10.390;2022-12-18T07:16:58;26.97;;;13.20;;
10884;SDS011;5495;53.252;10.390;2022-12-18T07:19:40;29.60;;;15.33;;
10884;SDS011;5495;53.252;10.390;2022-12-18T07:22:12;26.20;;;14.60;;
10884;SDS011;5495;53.252;10.390;2022-12-18T07:24:42;29.90;;;14.10;;
10884;SDS011;5495;53.252;10.390;2022-12-18T07:27:15;21.40;;;12.63;;
10884;SDS011;5495;53.252;10.390;2022-12-18T07:29:44;29.50;;;13.47;;
10884;SDS011;5495;53.252;10.390;2022-12-18T07:32:14;27.20;;;14.40;;
10884;SDS011;5495;53.252;10.390;2022-12-18T07:34:43;25.73;;;13.30;;
10884;SDS011;5495;53.252;10.390;2022-12-18T07:37:16;22.80;;;13.00;;
10884;SDS011;5495;53.252;10.390;2022-12-18T07:39:52;24.80;;;13.13;;
10884;SDS011;5495;53.252;10.390;2022-12-18T07:42:33;25.37;;;13.80;;
10884;SDS011;5495;53.252;10.390;2022-12-18T07:45:07;22.87;;;12.63;;
10884;SDS011;5495;53.252;10.390;2022-12-18T07:47:34;23.50;;;13.27;;
10884;SDS011;5495;53.252;10.390;2022-12-18T07:50:07;24.90;;;13.77;;
10884;SDS011;5495;53.252;10.390;2022-12-18T07:52:34;25.10;;;13.77;;
10884;SDS011;5495;53.252;10.390;2022-12-18T07:55:04;23.87;;;12.60;;
10884;SDS011;5495;53.252;10.390;2022-12-18T07:57:31;26.50;;;14.23;;
10884;SDS011;5495;53.252;10.390;2022-12-18T07:59:57;26.93;;;13.70;;
10884;SDS011;5495;53.252;10.390;2022-12-18T08:02:30;26.27;;;13.20;;
10884;SDS011;5495;53.252;10.390;2022-12-18T08:04:56;27.07;;;14.27;;
10884;SDS011;5495;53.252;10.390;2022-12-18T08:07:24;26.40;;;14.20;;
10884;SDS011;5495;53.252;10.390;2022-12-18T08:09:51;27.90;;;14.27;;
10884;SDS011;5495;53.252;10.390;2022-12-18T08:12:18;30.83;;;14.33;;
10884;SDS011;5495;53.252;10.390;2022-12-18T08:14:45;29.03;;;15.17;;
10884;SDS011;5495;53.252;10.390;2022-12-18T08:17:25;29.50;;;14.50;;
10884;SDS011;5495;53.252;10.390;2022-12-18T08:22:37;26.80;;;14.10;;
10884;SDS011;5495;53.252;10.390;2022-12-18T08:25:07;28.70;;;13.60;;
10884;SDS011;5495;53.252;10.390;2022-12-18T08:27:34;29.87;;;15.57;;
10884;SDS011;5495;53.252;10.390;2022-12-18T08:30:01;27.10;;;13.97;;
10884;SDS011;5495;53.252;10.390;2022-12-18T08:32:28;25.10;;;14.97;;
10884;SDS011;5495;53.252;10.390;2022-12-18T08:34:55;25.60;;;13.70;;
10884;SDS011;5495;53.252;10.390;2022-12-18T08:37:21;28.03;;;14.00;;
10884;SDS011;5495;53.252;10.390;2022-12-18T08:39:49;23.57;;;13.43;;
10884;SDS011;5495;53.252;10.390;2022-12-18T08:42:17;26.20;;;13.90;;
10884;SDS011;5495;53.252;10.390;2022-12-18T08:45:01;26.47;;;14.70;;
10884;SDS011;5495;53.252;10.390;2022-12-18T08:47:32;27.77;;;14.33;;
10884;SDS011;5495;53.252;10.390;2022-12-18T08:49:58;32.93;;;14.63;;
10884;SDS011;5495;53.252;10.390;2022-12-18T08:52:25;28.43;;;14.20;;
10884;SDS011;5495;53.252;10.390;2022-12-18T08:54:54;27.73;;;14.33;;
10884;SDS011;5495;53.252;10.390;2022-12-18T08:57:20;25.27;;;14.13;;
10884;SDS011;5495;53.252;10.390;2022-12-18T08:59:47;27.77;;;13.70;;
10884;SDS011;5495;53.252;10.390;2022-12-18T09:02:14;25.47;;;13.90;;
10884;SDS011;5495;53.252;10.390;2022-12-18T09:04:41;26.60;;;14.17;;
10884;SDS011;5495;53.252;10.390;2022-12-18T09:07:13;24.23;;;14.63;;
10884;SDS011;5495;53.252;10.390;2022-12-18T09:09:44;27.60;;;13.77;;
10884;SDS011;5495;53.252;10.390;2022-12-18T09:12:14;25.17;;;13.80;;
10884;SDS011;5495;53.252;10.390;2022-12-18T09:14:46;22.60;;;12.83;;
10884;SDS011;5495;53.252;10.390;2022-12-18T09:17:24;31.37;;;14.50;;
10884;SDS011;5495;53.252;10.390;2022-12-18T09:19:57;30.60;;;14.00;;
10884;SDS011;5495;53.252;10.390;2022-12-18T09:22:31;28.87;;;13.80;;
10884;SDS011;5495;53.252;10.390;2022-12-18T09:25:00;26.07;;;14.03;;
10884;SDS011;5495;53.252;10.390;2022-12-18T09:30:36;24.10;;;12.87;;
10884;SDS011;5495;53.252;10.390;2022-12-18T09:33:04;26.67;;;13.80;;
10884;SDS011;5495;53.252;10.390;2022-12-18T09:35:31;23.50;;;14.03;;
10884;SDS011;5495;53.252;10.390;2022-12-18T09:37:58;24.30;;;13.57;;
10884;SDS011;5495;53.252;10.390;2022-12-18T09:40:28;27.77;;;14.87;;
10884;SDS011;5495;53.252;10.390;2022-12-18T09:43:00;25.23;;;13.67;;
10884;SDS011;5495;53.252;10.390;2022-12-18T09:45:30;26.33;;;13.17;;
10884;SDS011;5495;53.252;10.390;2022-12-18T09:48:04;25.70;;;13.53;;
10884;SDS011;5495;53.252;10.390;2022-12-18T09:50:39;23.53;;;13.33;;
10884;SDS011;5495;53.252;10.390;2022-12-18T09:53:14;23.63;;;13.97;;
10884;SDS011;5495;53.252;10.390;2022-12-18T09:55:48;28.90;;;13.90;;
10884;SDS011;5495;53.252;10.390;2022-12-18T09:58:19;25.27;;;15.10;;
10884;SDS011;5495;53.252;10.390;2022-12-18T10:00:56;30.27;;;14.30;;
10884;SDS011;5495;53.252;10.390;2022-12-18T10:03:24;26.00;;;13.90;;
10884;SDS011;5495;53.252;10.390;2022-12-18T10:05:54;24.47;;;14.13;;
10884;SDS011;5495;53.252;10.390;2022-12-18T10:08:29;24.57;;;13.60;;
10884;SDS011;5495;53.252;10.390;2022-12-18T10:11:14;28.77;;;14.50;;
10884;SDS011;5495;53.252;10.390;2022-12-18T10:13:50;28.10;;;14.37;;
10884;SDS011;5495;53.252;10.390;2022-12-18T10:16:24;27.47;;;14.57;;
10884;SDS011;5495;53.252;10.390;2022-12-18T10:18:59;25.80;;;14.50;;
10884;SDS011;5495;53.252;10.390;2022-12-18T10:21:38;24.37;;;13.20;;
10884;SDS011;5495;53.252;10.390;2022-12-18T10:24:20;26.40;;;14.20;;
10884;SDS011;5495;53.252;10.390;2022-12-18T10:26:59;27.70;;;14.60;;
10884;SDS011;5495;53.252;10.390;2022-12-18T10:29:39;25.10;;;13.73;;
10884;SDS011;5495;53.252;10.390;2022-12-18T10:32:17;24.50;;;13.37;;
10884;SDS011;5495;53.252;10.390;2022-12-18T10:34:45;21.80;;;12.90;;
10884;SDS011;5495;53.252;10.390;2022-12-18T10:37:15;28.77;;;13.60;;
10884;SDS011;5495;53.252;10.390;2022-12-18T10:40:06;24.87;;;13.20;;
10884;SDS011;5495;53.252;10.390;2022-12-18T10:43:03;22.03;;;13.17;;
10884;SDS011;5495;53.252;10.390;2022-12-18T10:45:31;21.50;;;13.50;;
10884;SDS011;5495;53.252;10.390;2022-12-18T10:48:04;21.70;;;13.60;;
10884;SDS011;5495;53.252;10.390;2022-12-18T10:50:48;22.00;;;13.67;;
10884;SDS011;5495;53.252;10.390;2022-12-18T10:53:18;24.20;;;13.40;;
10884;SDS011;5495;53.252;10.390;2022-12-18T10:55:47;26.70;;;14.43;;
10884;SDS011;5495;53.252;10.390;2022-12-18T10:58:21;23.23;;;13.40;;
10884;SDS011;5495;53.252;10.390;2022-12-18T11:01:05;22.70;;;13.43;;
10884;SDS011;5495;53.252;10.390;2022-12-18T11:03:36;22.53;;;13.73;;
10884;SDS011;5495;53.252;10.390;2022-12-18T11:06:09;20.17;;;13.23;;
10884;SDS011;5495;53.252;10.390;2022-12-18T11:09:02;23.57;;;13.33;;
10884;SDS011;5495;53.252;10.390;2022-12-18T11:11:47;21.77;;;13.00;;
10884;SDS011;5495;53.252;10.390;2022-12-18T11:14:20;21.03;;;13.10;;
10884;SDS011;5495;53.252;10.390;2022-12-18T11:16:53;19.07;;;12.93;;
10884;SDS011;5495;53.252;10.390;2022-12-18T11:19:24;32.17;;;13.13;;
10884;SDS011;5495;53.252;10.390;2022-12-18T11:21:57;21.10;;;12.43;;
10884;SDS011;5495;53.252;10.390;2022-12-18T11:24:26;22.97;;;12.87;;
10884;SDS011;5495;53.252;10.390;2022-12-18T11:26:56;19.23;;;12.20;;
10884;SDS011;5495;53.252;10.390;2022-12-18T11:29:31;24.67;;;13.57;;
10884;SDS011;5495;53.252;10.390;2022-12-18T11:32:12;20.73;;;12.53;;
10884;SDS011;5495;53.252;10.390;2022-12-18T11:34:54;22.63;;;12.37;;
10884;SDS011;5495;53.252;10.390;2022-12-18T11:37:27;23.63;;;12.83;;
10884;SDS011;5495;53.252;10.390;2022-12-18T11:39:56;21.27;;;12.63;;
10884;SDS011;5495;53.252;10.390;2022-12-18T11:42:32;22.90;;;13.17;;
10884;SDS011;5495;53.252;10.390;2022-12-18T11:45:15;22.60;;;13.33;;
10884;SDS011;5495;53.252;10.390;2022-12-18T11:47:54;22.30;;;13.47;;
10884;SDS011;5495;53.252;10.390;2022-12-18T11:50:26;21.67;;;12.60;;
10884;SDS011;5495;53.252;10.390;2022-12-18T11:52:57;21.77;;;12.67;;
10884;SDS011;5495;53.252;10.390;2022-12-18T11:55:35;23.77;;;12.77;;
10884;SDS011;5495;53.252;10.390;2022-12-18T11:58:09;23.03;;;13.40;;
10884;SDS011;5495;53.252;10.390;2022-12-18T12:00:46;23.50;;;12.60;;
10884;SDS011;5495;53.252;10.390;2022-12-18T12:03:26;24.63;;;13.07;;
10884;SDS011;5495;53.252;10.390;2022-12-18T12:06:08;24.97;;;13.57;;
10884;SDS011;5495;53.252;10.390;2022-12-18T12:08:45;25.37;;;12.80;;
10884;SDS011;5495;53.252;10.390;2022-12-18T12:11:22;23.00;;;12.73;;
10884;SDS011;5495;53.252;10.390;2022-12-18T12:14:00;26.73;;;11.97;;
10884;SDS011;5495;53.252;10.390;2022-12-18T12:16:50;25.87;;;13.33;;
10884;SDS011;5495;53.252;10.390;2022-12-18T12:19:27;22.33;;;12.27;;
10884;SDS011;5495;53.252;10.390;2022-12-18T12:22:05;22.77;;;11.83;;
10884;SDS011;5495;53.252;10.390;2022-12-18T12:24:40;22.43;;;12.57;;
10884;SDS011;5495;53.252;10.390;2022-12-18T12:27:18;23.10;;;12.30;;
10884;SDS011;5495;53.252;10.390;2022-12-18T12:29:55;28.50;;;13.10;;
10884;SDS011;5495;53.252;10.390;2022-12-18T12:32:32;23.93;;;12.27;;
10884;SDS011;5495;53.252;10.390;2022-12-18T12:35:11;25.33;;;12.30;;
10884;SDS011;5495;53.252;10.390;2022-12-18T12:37:49;24.67;;;12.90;;
10884;SDS011;5495;53.252;10.390;2022-12-18T12:40:26;22.40;;;12.93;;
10884;SDS011;5495;53.252;10.390;2022-12-18T12:42:55;23.43;;;13.07;;
10884;SDS011;5495;53.252;10.390;2022-12-18T12:45:41;27.43;;;12.60;;
10884;SDS011;5495;53.252;10.390;2022-12-18T12:48:16;22.63;;;11.87;;
10884;SDS011;5495;53.252;10.390;2022-12-18T12:50:47;22.30;;;12.47;;
10884;SDS011;5495;53.252;10.390;2022-12-18T12:53:20;21.73;;;11.53;;
10884;SDS011;5495;53.252;10.390;2022-12-18T12:55:55;25.03;;;12.93;;
10884;SDS011;5495;53.252;10.390;2022-12-18T12:58:28;25.70;;;13.20;;
10884;SDS011;5495;53.252;10.390;2022-12-18T13:01:04;30.53;;;14.10;;
10884;SDS011;5495;53.252;10.390;2022-12-18T13:03:42;26.30;;;13.17;;
10884;SDS011;5495;53.252;10.390;2022-12-18T13:06:23;30.00;;;14.07;;
10884;SDS011;5495;53.252;10.390;2022-12-18T13:09:02;26.23;;;13.17;;
10884;SDS011;5495;53.252;10.390;2022-12-18T13:11:34;26.00;;;13.27;;
10884;SDS011;5495;53.252;10.390;2022-12-18T13:14:23;26.07;;;14.03;;
10884;SDS011;5495;53.252;10.390;2022-12-18T13:20:05;26.50;;;13.33;;
10884;SDS011;5495;53.252;10.390;2022-12-18T13:22:35;26.47;;;13.90;;
10884;SDS011;5495;53.252;10.390;2022-12-18T13:25:29;26.43;;;14.27;;
10884;SDS011;5495;53.252;10.390;2022-12-18T13:28:12;31.73;;;14.50;;
10884;SDS011;5495;53.252;10.390;2022-12-18T13:30:46;27.73;;;13.30;;
10884;SDS011;5495;53.252;10.390;2022-12-18T13:36:29;31.73;;;14.57;;
10884;SDS011;5495;53.252;10.390;2022-12-18T13:39:11;29.40;;;14.97;;
10884;SDS011;5495;53.252;10.390;2022-12-18T13:45:43;32.83;;;15.37;;
10884;SDS011;5495;53.252;10.390;2022-12-18T13:48:22;34.43;;;16.23;;
10884;SDS011;5495;53.252;10.390;2022-12-18T13:50:53;29.93;;;13.97;;
10884;SDS011;5495;53.252;10.390;2022-12-18T13:53:24;31.07;;;15.40;;
10884;SDS011;5495;53.252;10.390;2022-12-18T13:55:56;30.93;;;15.03;;
10884;SDS011;5495;53.252;10.390;2022-12-18T13:58:24;32.17;;;15.33;;
10884;SDS011;5495;53.252;10.390;2022-12-18T14:00:51;35.43;;;15.97;;
10884;SDS011;5495;53.252;10.390;2022-12-18T14:03:20;32.47;;;15.00;;
10884;SDS011;5495;53.252;10.390;2022-12-18T14:05:52;31.80;;;15.33;;
10884;SDS011;5495;53.252;10.390;2022-12-18T14:08:20;30.07;;;15.50;;
10884;SDS011;5495;53.252;10.390;2022-12-18T14:10:50;33.23;;;15.33;;
10884;SDS011;5495;53.252;10.390;2022-12-18T14:13:19;32.17;;;15.67;;
10884;SDS011;5495;53.252;10.390;2022-12-18T14:15:53;35.63;;;15.87;;
10884;SDS011;5495;53.252;10.390;2022-12-18T14:18:22;32.87;;;15.80;;
10884;SDS011;5495;53.252;10.390;2022-12-18T14:20:51;30.53;;;15.70;;
10884;SDS011;5495;53.252;10.390;2022-12-18T14:23:30;30.67;;;15.27;;
10884;SDS011;5495;53.252;10.390;2022-12-18T14:25:59;30.97;;;15.30;;
10884;SDS011;5495;53.252;10.390;2022-12-18T14:28:42;32.43;;;14.83;;
10884;SDS011;5495;53.252;10.390;2022-12-18T14:31:16;34.93;;;14.43;;
10884;SDS011;5495;53.252;10.390;2022-12-18T14:33:44;27.60;;;14.50;;
10884;SDS011;5495;53.252;10.390;2022-12-18T14:36:15;34.50;;;15.07;;
10884;SDS011;5495;53.252;10.390;2022-12-18T14:38:43;34.00;;;14.87;;
10884;SDS011;5495;53.252;10.390;2022-12-18T14:41:14;28.73;;;14.50;;
10884;SDS011;5495;53.252;10.390;2022-12-18T14:43:44;29.97;;;15.23;;
10884;SDS011;5495;53.252;10.390;2022-12-18T14:46:30;32.10;;;14.70;;
10884;SDS011;5495;53.252;10.390;2022-12-18T14:49:02;29.17;;;13.87;;
10884;SDS011;5495;53.252;10.390;2022-12-18T14:51:32;27.80;;;14.57;;
10884;SDS011;5495;53.252;10.390;2022-12-18T14:54:14;35.07;;;15.10;;
10884;SDS011;5495;53.252;10.390;2022-12-18T14:56:45;28.77;;;14.23;;
10884;SDS011;5495;53.252;10.390;2022-12-18T14:59:19;30.67;;;14.20;;
10884;SDS011;5495;53.252;10.390;2022-12-18T15:01:51;27.10;;;14.93;;
10884;SDS011;5495;53.252;10.390;2022-12-18T15:04:27;26.27;;;12.73;;
10884;SDS011;5495;53.252;10.390;2022-12-18T15:07:11;29.97;;;13.87;;
10884;SDS011;5495;53.252;10.390;2022-12-18T15:09:42;27.93;;;13.63;;